Time;durP1;ratioP1;P1;durP2;ratioP2;P2;SDS_P1;SDS_P2;PMS_P1;PMS_P2;Temp;Humidity;BMP_temperature;BMP_pressure;BME280_temperature;BME280_humidity;BME280_pressure;Samples;Min_cycle;Max_cycle;Signal;HPM_P1;HPM_P2
2020/12/09 00:00:46;;;;;;;17.00;7.18;;;;;;;2.64;97.66;97145.81;5018664;28;45351;-79
2020/12/09 00:03:11;;;;;;;9.30;5.00;;;;;;;2.68;97.56;97141.13;5018914;28;45363;-79
2020/12/09 00:05:37;;;;;;;13.65;5.30;;;;;;;2.71;97.34;97143.50;5018650;28;45347;-79
2020/12/09 00:08:02;;;;;;;8.52;4.70;;;;;;;2.77;97.00;97143.78;5013171;28;45474;-79
2020/12/09 00:10:28;;;;;;;6.72;4.15;;;;;;;2.79;96.67;97146.28;5026444;28;45511;-79
2020/12/09 00:12:53;;;;;;;7.30;3.72;;;;;;;2.59;97.47;97148.84;5018418;28;45374;-79
2020/12/09 00:15:19;;;;;;;6.10;3.70;;;;;;;2.73;97.54;97141.56;5018803;28;45511;-79
2020/12/09 00:17:45;;;;;;;5.63;3.50;;;;;;;2.61;97.98;97144.28;5016143;28;47606;-79
2020/12/09 00:20:10;;;;;;;5.40;3.63;;;;;;;2.68;97.27;97156.88;5018597;28;45493;-79
2020/12/09 00:22:35;;;;;;;5.53;3.50;;;;;;;2.70;97.31;97149.69;5018691;28;45475;-79
2020/12/09 00:25:02;;;;;;;6.45;3.60;;;;;;;2.73;97.14;97152.06;5018726;28;45247;-79
2020/12/09 00:27:28;;;;;;;6.88;4.10;;;;;;;2.53;97.75;97152.00;5033427;28;47158;-79
2020/12/09 00:29:53;;;;;;;6.38;3.90;;;;;;;2.61;97.65;97154.78;5018619;28;45400;-79
2020/12/09 00:32:19;;;;;;;4.80;2.70;;;;;;;2.51;98.14;97155.69;5016951;28;45530;-79
2020/12/09 00:34:44;;;;;;;3.95;2.60;;;;;;;2.73;97.69;97158.16;5033743;28;45525;-79
2020/12/09 00:37:10;;;;;;;5.20;3.30;;;;;;;2.70;97.76;97161.06;5018143;28;46177;-79
2020/12/09 00:39:35;;;;;;;6.43;3.75;;;;;;;2.70;97.37;97157.59;5018375;28;45468;-79
2020/12/09 00:42:01;;;;;;;4.72;3.30;;;;;;;2.76;96.96;97154.41;5017916;28;45461;-79
2020/12/09 00:44:26;;;;;;;5.78;3.63;;;;;;;2.78;96.99;97152.50;5018273;28;45383;-79
2020/12/09 00:46:51;;;;;;;4.70;3.05;;;;;;;2.39;98.08;97158.41;5017778;28;45326;-80
2020/12/09 00:49:17;;;;;;;5.55;3.58;;;;;;;2.65;97.46;97160.63;5018303;28;45494;-79
2020/12/09 00:51:42;;;;;;;5.32;3.30;;;;;;;2.59;97.76;97169.00;5018167;28;45489;-80
2020/12/09 00:54:07;;;;;;;9.20;4.10;;;;;;;2.49;98.85;97163.72;5018067;28;45308;-79
2020/12/09 00:56:33;;;;;;;5.43;3.75;;;;;;;2.52;98.71;97170.50;5017708;28;46295;-80
2020/12/09 00:58:58;;;;;;;8.95;3.83;;;;;;;2.17;99.65;97175.16;5016759;28;45846;-80
2020/12/09 01:01:23;;;;;;;7.47;4.32;;;;;;;2.00;100.00;97169.53;5033127;28;45451;-80
2020/12/09 01:03:49;;;;;;;6.28;3.60;;;;;;;2.28;99.73;97172.47;5017975;28;45351;-80
2020/12/09 01:06:14;;;;;;;5.97;3.78;;;;;;;2.45;99.31;97181.50;5017719;28;45830;-79
2020/12/09 01:08:40;;;;;;;6.18;3.40;;;;;;;2.32;98.24;97179.13;5005818;28;45515;-80
2020/12/09 01:14:55;;;;;;;5.63;3.25;;;;;;;2.28;99.42;97188.22;5017821;28;45356;-80
2020/12/09 01:17:20;;;;;;;5.10;2.70;;;;;;;2.26;98.77;97192.75;5017569;28;46723;-80
2020/12/09 01:19:45;;;;;;;4.18;2.60;;;;;;;2.29;99.44;97197.75;5017645;28;45436;-80
2020/12/09 01:22:11;;;;;;;5.32;3.00;;;;;;;2.38;97.67;97190.06;5017854;28;45481;-80
2020/12/09 01:24:36;;;;;;;4.88;3.15;;;;;;;2.06;97.74;97198.81;5017792;28;45311;-80
2020/12/09 01:27:30;;;;;;;5.35;3.20;;;;;;;2.04;99.63;97199.78;5017073;28;46154;-80
2020/12/09 01:29:55;;;;;;;5.07;3.50;;;;;;;2.25;98.81;97201.59;5032839;28;45273;-80
2020/12/09 01:32:21;;;;;;;5.38;3.30;;;;;;;2.41;98.40;97203.72;5017846;28;45510;-80
2020/12/09 01:34:46;;;;;;;3.63;2.20;;;;;;;2.29;98.07;97210.88;5017722;28;45529;-80
2020/12/09 01:37:14;;;;;;;4.80;2.38;;;;;;;2.35;98.53;97213.94;5030590;28;47337;-80
2020/12/09 01:39:41;;;;;;;3.28;1.90;;;;;;;2.26;97.35;97210.28;5017369;28;45339;-80
2020/12/09 01:42:06;;;;;;;2.85;1.55;;;;;;;2.29;97.66;97212.66;5017190;28;45244;-80
2020/12/09 01:44:32;;;;;;;1.90;1.45;;;;;;;2.40;97.38;97222.25;5017222;28;45228;-80
2020/12/09 01:47:04;;;;;;;2.40;1.30;;;;;;;2.36;97.31;97229.53;5017384;28;45310;-80
2020/12/09 01:49:31;;;;;;;1.40;0.95;;;;;;;2.26;96.34;97228.66;5017392;28;45490;-80
2020/12/09 01:51:59;;;;;;;1.75;1.00;;;;;;;2.33;95.48;97228.00;5017475;28;45209;-80
2020/12/09 01:54:25;;;;;;;1.20;1.00;;;;;;;2.25;95.50;97227.84;5017331;28;45259;-80
2020/12/09 01:57:11;;;;;;;1.35;0.88;;;;;;;2.07;95.75;97231.97;5032501;28;47212;-80
2020/12/09 01:59:38;;;;;;;1.95;0.93;;;;;;;2.11;96.80;97234.22;5032372;28;45366;-80
2020/12/09 02:02:05;;;;;;;1.40;0.90;;;;;;;1.79;96.38;97235.09;5017264;28;45391;-80
2020/12/09 02:04:30;;;;;;;1.40;0.85;;;;;;;2.07;96.75;97234.59;5017151;28;45351;-80
2020/12/09 02:06:56;;;;;;;2.42;1.27;;;;;;;2.14;96.49;97238.34;5015798;28;46727;-80
2020/12/09 02:09:23;;;;;;;2.35;1.08;;;;;;;2.15;96.05;97242.66;5003534;28;45395;-80
2020/12/09 02:11:50;;;;;;;1.50;0.90;;;;;;;2.19;96.13;97244.06;5032445;28;45462;-81
2020/12/09 02:14:16;;;;;;;2.60;0.93;;;;;;;1.88;97.28;97236.97;5016996;28;45280;-80
2020/12/09 02:16:41;;;;;;;1.60;1.00;;;;;;;1.85;97.06;97242.47;5017055;28;45281;-80
2020/12/09 02:19:06;;;;;;;2.60;1.25;;;;;;;2.11;96.85;97251.72;5016884;28;45323;-80
2020/12/09 02:21:36;;;;;;;1.75;1.10;;;;;;;2.21;96.32;97252.66;5017122;28;45477;-80
2020/12/09 02:24:02;;;;;;;1.40;0.80;;;;;;;2.19;95.60;97252.78;5015651;28;45531;-80
2020/12/09 02:26:29;;;;;;;2.22;0.88;;;;;;;2.25;96.19;97255.84;5016648;28;45246;-80
2020/12/09 02:28:55;;;;;;;1.75;1.10;;;;;;;1.96;96.80;97257.28;5015557;28;45436;-80
2020/12/09 02:31:21;;;;;;;2.67;1.02;;;;;;;2.06;96.62;97259.16;5017041;28;45307;-80
2020/12/09 02:33:46;;;;;;;2.58;1.08;;;;;;;2.06;96.65;97261.78;5016778;28;45312;-80
2020/12/09 02:36:12;;;;;;;1.58;1.00;;;;;;;2.14;96.99;97265.44;5016657;28;45993;-80
2020/12/09 02:38:37;;;;;;;2.42;1.17;;;;;;;2.09;96.21;97259.75;5032051;28;45537;-80
2020/12/09 02:41:03;;;;;;;1.80;1.13;;;;;;;2.08;96.04;97265.09;5018106;28;45255;-80
2020/12/09 02:43:28;;;;;;;2.10;1.10;;;;;;;2.08;96.25;97259.84;5035218;28;45324;-80
2020/12/09 02:45:53;;;;;;;2.03;1.10;;;;;;;1.95;96.07;97266.13;5019950;28;45372;-80
2020/12/09 02:48:19;;;;;;;2.53;1.27;;;;;;;2.06;95.65;97261.78;5019836;28;45405;-80
2020/12/09 02:50:44;;;;;;;1.80;1.20;;;;;;;2.11;95.92;97262.22;5020119;28;45303;-80
2020/12/09 02:53:10;;;;;;;1.55;1.10;;;;;;;2.07;96.03;97263.44;5019789;28;45311;-80
2020/12/09 02:55:35;;;;;;;1.80;1.10;;;;;;;2.15;95.55;97266.25;5019837;28;45340;-80
2020/12/09 02:58:00;;;;;;;1.50;0.95;;;;;;;1.94;95.94;97274.94;5018260;28;45757;-80
2020/12/09 03:00:26;;;;;;;2.15;1.02;;;;;;;2.13;95.95;97273.41;5020052;28;45196;-80
2020/12/09 03:02:52;;;;;;;2.00;1.30;;;;;;;1.79;95.84;97277.03;5019586;28;45412;-80
2020/12/09 03:05:18;;;;;;;2.22;1.20;;;;;;;1.87;96.26;97271.16;5035093;28;47771;-80
2020/12/09 03:07:43;;;;;;;2.42;1.33;;;;;;;1.66;97.40;97265.84;5016523;28;45418;-80
2020/12/09 03:10:08;;;;;;;3.08;1.52;;;;;;;1.92;96.17;97284.72;5009711;28;45185;-80
2020/12/09 03:12:34;;;;;;;2.22;1.45;;;;;;;2.11;95.97;97275.34;5019405;28;45264;-80
2020/12/09 03:14:59;;;;;;;2.60;1.55;;;;;;;2.14;95.51;97281.19;5034749;28;47297;-80
2020/12/09 03:17:25;;;;;;;3.00;1.65;;;;;;;2.18;95.37;97287.00;5018290;28;45347;-80
2020/12/09 03:19:50;;;;;;;3.97;1.45;;;;;;;2.20;95.41;97282.44;5019603;28;45260;-80
2020/12/09 03:22:16;;;;;;;4.00;2.10;;;;;;;2.12;95.79;97288.34;5019583;28;45478;-80
2020/12/09 03:24:41;;;;;;;5.13;2.00;;;;;;;2.15;95.22;97289.88;5019665;28;46124;-80
2020/12/09 03:27:06;;;;;;;3.83;2.00;;;;;;;2.26;94.92;97286.38;5017780;28;45476;-80
2020/12/09 03:29:32;;;;;;;2.97;1.60;;;;;;;2.22;94.58;97295.44;5019833;28;45251;-80
2020/12/09 03:31:57;;;;;;;2.63;1.58;;;;;;;2.15;94.79;97290.72;5019189;28;45302;-81
2020/12/09 03:34:23;;;;;;;2.88;1.70;;;;;;;2.08;94.26;97288.72;5019349;28;46194;-80
2020/12/09 03:36:48;;;;;;;3.13;1.73;;;;;;;2.04;95.11;97296.84;5019228;28;45388;-80
2020/12/09 03:39:13;;;;;;;2.15;1.20;;;;;;;2.02;94.38;97298.75;5019596;28;45344;-80
2020/12/09 03:41:39;;;;;;;3.05;1.88;;;;;;;2.17;95.15;97293.19;5018784;28;45546;-80
2020/12/09 03:44:05;;;;;;;2.92;1.60;;;;;;;2.11;94.55;97285.84;5019081;28;45343;-80
2020/12/09 03:46:30;;;;;;;3.72;1.88;;;;;;;2.07;94.63;97295.75;5018962;28;45361;-80
2020/12/09 03:48:56;;;;;;;2.15;1.50;;;;;;;2.00;95.84;97300.66;5019622;28;45325;-80
2020/12/09 03:51:21;;;;;;;2.95;1.48;;;;;;;1.87;96.48;97300.00;5018998;28;45425;-80
2020/12/09 03:53:47;;;;;;;3.63;1.70;;;;;;;1.84;97.25;97308.13;5019159;28;45253;-80
2020/12/09 03:56:12;;;;;;;3.15;1.70;;;;;;;1.63;97.15;97298.41;5018486;28;45216;-80
2020/12/09 03:58:37;;;;;;;2.67;1.42;;;;;;;1.80;97.21;97309.31;5019364;28;45216;-80
2020/12/09 04:01:03;;;;;;;2.55;1.52;;;;;;;1.92;96.73;97310.94;5018858;28;45583;-80
2020/12/09 04:03:28;;;;;;;3.13;1.50;;;;;;;2.04;96.70;97303.88;5024239;28;47794;-80
2020/12/09 04:05:54;;;;;;;2.67;1.52;;;;;;;1.86;96.15;97307.03;5015458;28;45296;-81
2020/12/09 04:08:19;;;;;;;3.13;1.65;;;;;;;1.81;97.31;97316.22;5011152;28;45458;-81
2020/12/09 04:10:44;;;;;;;3.72;1.80;;;;;;;1.85;96.09;97315.88;5013569;28;45223;-81
2020/12/09 04:13:10;;;;;;;3.88;1.83;;;;;;;1.94;96.15;97314.28;5018631;28;45940;-81
2020/12/09 04:15:35;;;;;;;2.85;1.60;;;;;;;1.94;96.53;97319.53;5017191;28;46230;-81
2020/12/09 04:18:00;;;;;;;2.85;1.63;;;;;;;2.06;95.62;97320.31;5018765;28;45230;-81
2020/12/09 04:20:26;;;;;;;3.22;1.55;;;;;;;2.03;95.41;97325.81;5018570;28;45470;-81
2020/12/09 04:22:51;;;;;;;3.05;1.50;;;;;;;2.13;95.45;97328.50;5018570;28;46026;-81
2020/12/09 04:25:17;;;;;;;2.70;1.55;;;;;;;1.96;95.82;97324.66;5018449;28;45276;-81
2020/12/09 04:27:42;;;;;;;4.22;2.30;;;;;;;1.94;95.31;97330.00;5017178;28;45769;-81
2020/12/09 04:30:08;;;;;;;2.75;1.70;;;;;;;1.83;95.32;97330.03;5018453;28;45345;-81
2020/12/09 04:32:33;;;;;;;3.42;1.90;;;;;;;1.63;95.48;97329.00;5017086;28;46749;-81
2020/12/09 04:34:59;;;;;;;3.88;1.98;;;;;;;1.64;97.27;97331.53;5016982;28;45268;-81
2020/12/09 04:37:27;;;;;;;3.25;1.77;;;;;;;1.79;96.82;97333.88;5018671;28;45247;-81
2020/12/09 04:39:54;;;;;;;3.55;1.80;;;;;;;1.82;95.96;97333.63;5018334;28;45261;-81
2020/12/09 04:42:21;;;;;;;2.95;1.67;;;;;;;1.75;96.01;97344.59;5017880;28;45384;-81
2020/12/09 04:44:48;;;;;;;4.68;2.10;;;;;;;1.60;95.49;97337.97;5018282;28;45388;-81
2020/12/09 04:47:25;;;;;;;3.40;1.65;;;;;;;1.63;95.80;97344.75;5018291;28;45453;-81
2020/12/09 04:50:04;;;;;;;3.17;1.65;;;;;;;1.67;94.01;97348.78;5018163;28;45411;-81
2020/12/09 04:53:10;;;;;;;3.30;2.00;;;;;;;1.80;94.50;97346.88;5018045;28;45452;-80
2020/12/09 04:55:50;;;;;;;2.85;1.80;;;;;;;1.77;95.14;97357.59;5025629;28;45462;-81
2020/12/09 04:58:21;;;;;;;2.92;1.92;;;;;;;1.79;94.71;97350.44;5037303;28;45380;-81
2020/12/09 05:00:48;;;;;;;2.75;1.65;;;;;;;1.49;94.59;97353.72;5018078;28;45355;-81
2020/12/09 05:03:18;;;;;;;2.85;1.80;;;;;;;1.69;94.51;97354.72;5015968;28;48164;-81
2020/12/09 05:05:45;;;;;;;3.05;1.90;;;;;;;1.77;94.56;97351.50;5033300;28;45430;-81
2020/12/09 05:08:32;;;;;;;3.13;2.08;;;;;;;1.59;95.48;97359.88;5011548;28;45569;-81
2020/12/09 05:11:00;;;;;;;4.43;1.88;;;;;;;1.56;95.08;97354.88;5013980;28;45289;-81
2020/12/09 05:13:26;;;;;;;3.38;1.88;;;;;;;1.73;95.43;97357.00;5017877;28;45494;-81
2020/12/09 05:15:57;;;;;;;2.40;1.65;;;;;;;1.79;94.47;97354.84;5017541;28;45287;-81
2020/12/09 05:18:38;;;;;;;1.95;1.50;;;;;;;1.51;95.71;97362.28;5016592;28;45261;-81
2020/12/09 05:21:09;;;;;;;2.70;1.73;;;;;;;1.67;95.37;97360.13;5017656;28;45208;-81
2020/12/09 05:23:40;;;;;;;2.22;1.50;;;;;;;1.29;95.45;97369.19;5017659;28;45291;-81
2020/12/09 05:26:05;;;;;;;2.42;1.30;;;;;;;1.52;95.90;97366.56;5032861;28;45970;-81
2020/12/09 05:28:31;;;;;;;2.58;1.45;;;;;;;1.68;95.65;97364.41;5032972;28;45348;-81
2020/12/09 05:30:56;;;;;;;2.40;1.50;;;;;;;1.68;95.37;97379.28;5016350;28;45657;-81
2020/12/09 05:33:30;;;;;;;2.53;1.50;;;;;;;1.44;95.95;97373.25;5017412;28;45592;-81
2020/12/09 05:35:57;;;;;;;3.13;1.73;;;;;;;1.70;95.32;97378.22;5016326;28;45289;-81
2020/12/09 05:38:23;;;;;;;2.85;1.60;;;;;;;1.73;95.10;97375.34;5017442;28;45505;-81
2020/12/09 05:40:48;;;;;;;6.00;1.55;;;;;;;1.80;94.02;97372.25;5017414;28;45291;-81
2020/12/09 05:43:15;;;;;;;3.22;1.35;;;;;;;1.73;94.29;97380.59;5032403;28;47984;-81
2020/12/09 05:45:41;;;;;;;2.35;1.40;;;;;;;1.69;94.33;97376.56;5032859;28;45384;-81
2020/12/09 05:48:11;;;;;;;2.83;1.52;;;;;;;1.70;94.44;97382.63;5017190;28;45225;-81
2020/12/09 05:50:48;;;;;;;2.28;1.50;;;;;;;1.66;94.66;97384.66;5017472;28;45589;-81
2020/12/09 05:53:15;;;;;;;2.15;1.35;;;;;;;1.69;95.06;97394.06;5016502;28;45469;-81
2020/12/09 05:55:42;;;;;;;2.35;1.23;;;;;;;1.69;95.28;97391.44;5017258;28;45322;-81
2020/12/09 05:58:25;;;;;;;2.55;1.50;;;;;;;1.71;94.88;97400.00;5017070;28;45247;-81
2020/12/09 06:01:03;;;;;;;1.88;1.17;;;;;;;1.67;94.34;97398.59;5017159;28;45312;-81
2020/12/09 06:03:30;;;;;;;2.25;1.50;;;;;;;1.71;94.27;97394.75;5023990;28;47901;-81
2020/12/09 06:06:12;;;;;;;2.00;1.30;;;;;;;1.80;94.69;97406.31;5015059;28;45497;-81
2020/12/09 06:08:45;;;;;;;2.65;1.45;;;;;;;1.68;96.06;97401.09;5031208;28;45446;-81
2020/12/09 06:11:13;;;;;;;2.60;1.60;;;;;;;1.53;95.70;97397.06;5015002;28;45352;-81
2020/12/09 06:13:39;;;;;;;2.10;1.40;;;;;;;1.72;96.41;97402.53;5016103;28;46007;-81
2020/12/09 06:16:07;;;;;;;4.55;1.65;;;;;;;1.43;97.08;97415.28;5034479;28;45526;-81
2020/12/09 06:18:34;;;;;;;2.90;1.60;;;;;;;1.42;96.53;97417.09;5035363;28;45438;-81
2020/12/09 06:21:00;;;;;;;4.00;1.50;;;;;;;1.67;96.28;97409.91;5019624;28;45414;-81
2020/12/09 06:23:27;;;;;;;2.67;1.48;;;;;;;1.78;95.89;97411.72;5019863;28;46134;-81
2020/12/09 06:25:57;;;;;;;3.80;1.80;;;;;;;1.65;95.81;97411.81;5019411;28;45408;-81
2020/12/09 06:28:26;;;;;;;3.90;2.30;;;;;;;1.70;95.61;97417.53;5020117;28;45409;-81
2020/12/09 06:30:53;;;;;;;4.28;2.65;;;;;;;1.74;95.18;97416.34;5019699;28;45471;-81
2020/12/09 06:33:34;;;;;;;4.32;2.55;;;;;;;1.64;95.07;97425.03;5034909;28;48168;-81
2020/12/09 06:36:14;;;;;;;5.43;2.95;;;;;;;1.72;95.85;97420.03;5019601;28;45299;-81
2020/12/09 06:38:41;;;;;;;5.32;2.80;;;;;;;1.71;95.45;97420.97;5029400;28;45521;-81
2020/12/09 06:41:06;;;;;;;5.10;3.03;;;;;;;1.67;95.45;97422.19;5034349;28;45467;-81
2020/12/09 06:43:32;;;;;;;6.13;4.20;;;;;;;1.66;95.17;97439.72;5017917;28;47241;-81
2020/12/09 06:45:58;;;;;;;6.60;4.20;;;;;;;1.70;95.31;97425.41;5051472;28;45499;-81
2020/12/09 06:48:24;;;;;;;3.08;2.00;;;;;;;1.67;94.73;97436.13;5019636;28;45404;-81
2020/12/09 06:50:51;;;;;;;6.75;6.05;;;;;;;1.56;93.43;97436.97;5034579;28;45434;-81
2020/12/09 06:53:17;;;;;;;5.70;4.80;;;;;;;1.59;94.70;97436.72;5017829;28;48003;-81
2020/12/09 06:55:47;;;;;;;4.68;3.92;;;;;;;1.60;94.52;97443.63;5018714;28;45440;-80
2020/12/09 06:58:26;;;;;;;3.15;2.15;;;;;;;1.54;94.89;97440.66;5017462;28;45475;-85
2020/12/09 07:01:05;;;;;;;3.20;2.28;;;;;;;1.50;93.89;97440.06;5018693;28;45648;-80
2020/12/09 07:03:39;;;;;;;3.72;2.10;;;;;;;1.51;93.34;97451.38;5016365;28;46159;-80
2020/12/09 07:06:16;;;;;;;12.20;5.22;;;;;;;1.60;94.66;97456.72;5019074;28;45616;-82
2020/12/09 07:08:46;;;;;;;12.32;6.60;;;;;;;1.47;94.66;97449.97;5018748;28;45366;-84
2020/12/09 07:11:11;;;;;;;6.85;3.70;;;;;;;1.51;94.92;97456.63;5018892;28;45465;-82
2020/12/09 07:13:37;;;;;;;9.57;5.03;;;;;;;1.60;95.11;97456.72;5017136;28;45388;-79
2020/12/09 07:16:02;;;;;;;11.73;6.55;;;;;;;1.55;95.28;97460.69;5017321;28;45434;-80
2020/12/09 07:18:27;;;;;;;6.13;3.83;;;;;;;1.59;94.81;97459.50;5018488;28;45498;-80
2020/12/09 07:20:53;;;;;;;9.73;5.20;;;;;;;1.48;94.87;97457.69;5017762;28;45474;-80
2020/12/09 07:23:19;;;;;;;7.00;3.70;;;;;;;1.55;95.27;97452.81;5017835;28;45556;-80
2020/12/09 07:25:44;;;;;;;4.38;2.80;;;;;;;1.52;94.13;97460.91;5032654;28;45467;-80
2020/12/09 07:28:10;;;;;;;4.65;2.80;;;;;;;1.50;93.89;97468.06;5033675;28;45364;-80
2020/12/09 07:30:36;;;;;;;4.82;3.15;;;;;;;1.42;94.04;97468.63;5018965;28;45202;-80
2020/12/09 07:33:01;;;;;;;5.22;2.40;;;;;;;1.41;93.87;97470.44;5012329;28;45485;-81
2020/12/09 07:35:27;;;;;;;2.97;2.15;;;;;;;1.50;93.64;97462.81;5018119;28;45454;-80
2020/12/09 07:37:57;;;;;;;7.38;4.13;;;;;;;1.56;93.62;97473.66;5017966;28;45398;-81
2020/12/09 07:40:31;;;;;;;7.78;4.22;;;;;;;1.57;94.42;97472.69;5018146;28;45557;-83
2020/12/09 07:43:11;;;;;;;18.02;8.65;;;;;;;1.55;95.53;97469.34;5028469;28;46829;-83
2020/12/09 07:45:44;;;;;;;12.23;7.97;;;;;;;1.52;94.81;97466.16;5025075;28;45435;-81
2020/12/09 07:48:15;;;;;;;10.07;6.30;;;;;;;1.57;94.00;97471.88;5029317;28;45467;-82
2020/12/09 07:50:47;;;;;;;9.85;6.90;;;;;;;1.58;93.83;97476.16;5011565;28;45356;-83
2020/12/09 07:53:12;;;;;;;9.52;7.65;;;;;;;1.56;93.37;97475.44;5013267;28;45632;-82
2020/12/09 07:55:38;;;;;;;8.00;6.35;;;;;;;1.60;94.22;97479.50;5017436;28;45493;-82
2020/12/09 07:58:09;;;;;;;5.68;3.47;;;;;;;1.68;94.75;97485.00;5017711;28;45372;-83
2020/12/09 08:00:44;;;;;;;;;;;;;;;1.68;95.35;97485.00;5017672;28;45492;-79
2020/12/09 08:03:39;;;;;;;7.60;3.97;;;;;;;1.44;97.52;97485.94;5018364;28;45378;-80
2020/12/09 08:06:04;;;;;;;6.60;2.60;;;;;;;1.35;98.04;97481.38;5015254;28;45506;-80
2020/12/09 08:08:33;;;;;;;6.07;3.13;;;;;;;1.42;98.31;97479.97;5017881;28;45349;-80
2020/12/09 08:11:17;;;;;;;5.28;3.33;;;;;;;1.25;97.99;97481.25;5017842;28;45515;-79
2020/12/09 08:13:42;;;;;;;4.72;2.90;;;;;;;1.30;96.93;97483.50;5011642;28;45415;-81
2020/12/09 08:16:14;;;;;;;8.93;3.08;;;;;;;1.49;97.65;97492.59;5016968;28;45466;-81
2020/12/09 08:18:42;;;;;;;4.65;2.90;;;;;;;1.52;96.30;97495.00;5017074;28;45404;-81
2020/12/09 08:21:11;;;;;;;5.03;2.95;;;;;;;1.36;96.07;97495.31;5016549;28;45876;-79
2020/12/09 08:23:38;;;;;;;4.63;3.03;;;;;;;1.54;96.29;97503.56;5030115;28;48265;-78
2020/12/09 08:26:04;;;;;;;4.78;2.63;;;;;;;1.48;96.31;97507.47;5015334;28;45294;-79
2020/12/09 08:28:32;;;;;;;4.82;3.10;;;;;;;1.69;96.23;97504.16;5016472;28;45473;-80
2020/12/09 08:30:58;;;;;;;4.63;2.83;;;;;;;1.43;96.63;97504.38;5015348;28;46506;-79
2020/12/09 08:33:28;;;;;;;7.53;3.20;;;;;;;1.62;96.04;97510.81;5016680;28;45396;-79
2020/12/09 08:36:01;;;;;;;5.83;3.30;;;;;;;1.73;95.53;97516.06;5017395;28;45547;-79
2020/12/09 08:38:29;;;;;;;5.68;3.60;;;;;;;1.79;95.21;97513.00;5015876;28;45443;-79
2020/12/09 08:40:57;;;;;;;6.35;3.70;;;;;;;1.88;94.74;97514.06;5015977;28;45473;-79
2020/12/09 08:43:27;;;;;;;5.55;3.83;;;;;;;1.86;94.75;97518.59;5015663;28;45622;-79
2020/12/09 08:45:52;;;;;;;6.70;3.95;;;;;;;1.87;94.03;97513.25;5016503;28;45426;-79
2020/12/09 08:48:19;;;;;;;5.53;3.92;;;;;;;1.95;93.82;97517.88;5016686;28;45419;-78
2020/12/09 08:50:45;;;;;;;6.25;3.70;;;;;;;1.92;94.51;97517.28;5015974;28;45591;-79
2020/12/09 08:53:11;;;;;;;7.25;4.88;;;;;;;1.88;92.72;97529.78;5014415;28;45490;-79
2020/12/09 08:55:36;;;;;;;5.72;3.33;;;;;;;1.88;91.86;97521.94;5016374;28;45464;-78
2020/12/09 08:58:02;;;;;;;5.88;3.47;;;;;;;1.95;93.26;97528.38;5016521;28;45315;-79
2020/12/09 09:00:27;;;;;;;6.88;4.50;;;;;;;1.98;92.83;97529.94;5012817;28;45601;-79
2020/12/09 09:02:55;;;;;;;6.13;3.10;;;;;;;1.79;94.95;97533.13;5017500;28;47073;-79
2020/12/09 09:05:21;;;;;;;4.38;2.78;;;;;;;1.81;93.83;97537.31;5008841;28;45537;-79
2020/12/09 09:07:46;;;;;;;4.40;2.58;;;;;;;1.79;93.55;97538.38;5014706;28;45457;-79
2020/12/09 09:10:11;;;;;;;4.75;2.50;;;;;;;1.77;92.28;97542.91;5016529;28;45261;-79
2020/12/09 09:12:37;;;;;;;4.15;2.70;;;;;;;1.90;92.96;97546.25;5014612;28;46083;-79
2020/12/09 09:15:03;;;;;;;5.05;2.67;;;;;;;1.91;93.63;97545.28;5015710;28;45943;-79
2020/12/09 09:17:29;;;;;;;7.65;4.15;;;;;;;1.85;93.80;97548.38;5015007;28;45452;-79
2020/12/09 09:19:54;;;;;;;8.57;5.22;;;;;;;1.93;93.79;97553.06;5015994;28;45265;-79
2020/12/09 09:22:19;;;;;;;6.57;5.35;;;;;;;1.91;92.64;97553.16;5017082;28;46138;-79
2020/12/09 09:24:45;;;;;;;6.53;4.65;;;;;;;2.00;93.14;97556.88;5016941;28;45399;-79
2020/12/09 09:27:11;;;;;;;6.47;5.22;;;;;;;2.02;92.96;97568.91;5016670;28;45463;-79
2020/12/09 09:29:37;;;;;;;5.25;3.58;;;;;;;2.01;92.52;97559.38;5015298;28;45769;-79
2020/12/09 09:32:04;;;;;;;4.47;2.33;;;;;;;1.97;93.05;97555.31;5010074;28;46912;-79
2020/12/09 09:34:29;;;;;;;5.78;4.00;;;;;;;2.04;93.39;97564.38;5030750;28;45502;-79
2020/12/09 09:36:55;;;;;;;4.07;2.83;;;;;;;2.08;93.01;97559.72;5015379;28;45605;-79
2020/12/09 09:39:20;;;;;;;4.40;3.03;;;;;;;2.11;92.88;97553.41;5013676;28;45433;-79
2020/12/09 09:41:46;;;;;;;4.70;2.60;;;;;;;2.09;92.60;97555.31;5009226;28;46188;-78
2020/12/09 09:44:12;;;;;;;4.10;2.83;;;;;;;2.07;92.54;97550.19;5012788;28;45518;-79
2020/12/09 09:46:38;;;;;;;4.50;2.78;;;;;;;2.06;92.49;97560.78;5014784;28;45541;-78
2020/12/09 09:49:04;;;;;;;4.97;3.17;;;;;;;2.04;92.92;97556.50;5017549;28;45646;-77
2020/12/09 09:51:29;;;;;;;4.50;2.92;;;;;;;1.94;93.82;97563.41;5017901;28;46182;-77
2020/12/09 09:53:55;;;;;;;4.00;2.67;;;;;;;2.06;92.96;97558.16;5019663;28;45502;-77
2020/12/09 09:56:20;;;;;;;5.50;3.25;;;;;;;2.04;92.98;97559.13;5020019;28;45360;-83
2020/12/09 09:58:46;;;;;;;5.13;3.03;;;;;;;1.89;94.27;97555.06;5018426;28;45649;-81
2020/12/09 10:01:14;;;;;;;4.68;3.05;;;;;;;1.99;92.51;97556.03;5029457;28;46857;-79
2020/12/09 10:03:39;;;;;;;4.70;3.22;;;;;;;1.97;93.08;97557.94;5014196;28;45820;-78
2020/12/09 10:06:05;;;;;;;6.53;3.72;;;;;;;2.03;93.44;97549.59;5014476;28;46148;-79
2020/12/09 10:08:30;;;;;;;5.20;3.15;;;;;;;1.67;95.26;97554.09;5014628;28;45422;-78
2020/12/09 10:10:56;;;;;;;5.60;3.40;;;;;;;1.92;94.51;97552.22;5010599;28;45546;-78
2020/12/09 10:13:21;;;;;;;5.25;3.55;;;;;;;1.93;94.08;97548.63;5018186;28;45351;-78
2020/12/09 10:15:48;;;;;;;5.38;3.20;;;;;;;1.87;94.44;97549.97;5016273;28;45723;-79
2020/12/09 10:18:14;;;;;;;5.07;3.03;;;;;;;2.01;94.46;97548.88;5012351;28;45404;-79
2020/12/09 10:20:39;;;;;;;7.07;3.42;;;;;;;1.92;94.33;97552.22;5019278;28;45911;-78
2020/12/09 10:23:05;;;;;;;5.93;2.67;;;;;;;1.99;94.74;97545.53;5032688;28;45407;-78
2020/12/09 10:25:30;;;;;;;4.00;2.95;;;;;;;2.16;94.45;97546.00;5017345;28;45470;-78
2020/12/09 10:27:56;;;;;;;3.33;2.10;;;;;;;2.16;93.54;97546.84;5017990;28;45481;-78
2020/12/09 10:30:21;;;;;;;3.25;2.22;;;;;;;2.20;93.96;97542.19;5033329;28;47781;-77
2020/12/09 10:32:47;;;;;;;12.90;5.47;;;;;;;2.19;93.20;97543.13;5014340;28;45831;-76
2020/12/09 10:35:13;;;;;;;8.25;4.90;;;;;;;2.19;93.98;97536.13;5016071;28;45421;-77
2020/12/09 10:37:38;;;;;;;4.13;2.60;;;;;;;2.11;84.80;97535.88;5014716;28;45689;-77
2020/12/09 10:40:04;;;;;;;3.50;2.50;;;;;;;1.96;88.53;97537.09;5019207;28;46490;-76
2020/12/09 10:42:30;;;;;;;5.88;4.22;;;;;;;2.12;91.70;97539.31;5015797;28;45442;-77
2020/12/09 10:44:55;;;;;;;15.73;14.07;;;;;;;2.19;89.07;97543.13;5032370;28;45562;-76
2020/12/09 10:47:21;;;;;;;3.85;2.45;;;;;;;1.88;89.98;97533.28;5017401;28;45399;-75
2020/12/09 10:49:46;;;;;;;4.78;3.22;;;;;;;2.08;86.56;97536.13;5017049;28;45529;-74
2020/12/09 10:52:12;;;;;;;4.40;2.83;;;;;;;2.23;84.95;97541.13;5017101;28;45458;-74
2020/12/09 10:54:38;;;;;;;5.97;4.43;;;;;;;2.34;88.06;97538.47;5018898;28;45608;-74
2020/12/09 10:57:04;;;;;;;4.32;2.55;;;;;;;2.29;90.65;97533.63;5018480;28;45478;-74
2020/12/09 10:59:30;;;;;;;8.95;5.97;;;;;;;2.26;89.64;97530.38;5042202;28;47711;-74
2020/12/09 11:01:56;;;;;;;6.32;5.22;;;;;;;2.29;89.96;97531.00;5023122;28;45494;-74
2020/12/09 11:04:22;;;;;;;4.63;3.42;;;;;;;2.28;88.85;97528.47;5016013;28;45478;-75
2020/12/09 11:06:48;;;;;;;4.85;3.55;;;;;;;2.28;91.14;97537.19;5023968;28;45427;-75
2020/12/09 11:09:13;;;;;;;3.60;2.70;;;;;;;2.29;89.69;97533.63;5028168;28;45414;-74
2020/12/09 11:11:45;;;;;;;5.00;3.13;;;;;;;2.32;91.30;97536.00;5026767;28;45568;-76
2020/12/09 11:14:11;;;;;;;4.25;2.70;;;;;;;2.32;91.36;97525.50;5022575;28;45591;-75
2020/12/09 11:16:36;;;;;;;5.10;3.40;;;;;;;2.32;90.96;97549.13;5021338;28;45716;-73
2020/12/09 11:19:02;;;;;;;5.05;3.20;;;;;;;2.29;86.66;97533.63;5016941;28;46267;-75
2020/12/09 11:21:27;;;;;;;4.30;2.80;;;;;;;2.33;83.26;97537.66;5033864;28;45331;-75
2020/12/09 11:23:53;;;;;;;5.38;3.55;;;;;;;2.36;85.57;97523.44;5018399;28;45489;-75
2020/12/09 11:26:20;;;;;;;7.50;4.38;;;;;;;2.36;85.49;97525.25;5017945;28;45627;-74
2020/12/09 11:28:46;;;;;;;32.22;19.38;;;;;;;2.39;88.89;97525.81;5018671;28;45963;-75
2020/12/09 11:31:12;;;;;;;5.65;3.65;;;;;;;2.28;89.12;97526.69;5018631;28;45236;-75
2020/12/09 11:33:37;;;;;;;5.38;3.67;;;;;;;2.32;87.94;97525.50;5018213;28;45640;-77
2020/12/09 11:36:03;;;;;;;4.88;3.40;;;;;;;2.35;86.08;97524.41;5018551;28;45394;-75
2020/12/09 11:38:29;;;;;;;6.32;3.95;;;;;;;2.37;85.90;97526.91;5018376;28;46378;-76
2020/12/09 11:40:55;;;;;;;4.03;2.85;;;;;;;2.38;84.98;97536.47;5018506;28;45410;-74
2020/12/09 11:43:21;;;;;;;5.57;3.90;;;;;;;2.38;88.87;97526.78;5017618;28;45425;-75
2020/12/09 11:45:47;;;;;;;4.40;2.85;;;;;;;2.39;86.75;97532.88;5033539;28;45283;-75